createdAt,value
2023-02-01T00:03:10.207Z,3.86
2023-02-01T00:08:12.908Z,3.90
2023-02-01T00:13:16.971Z,3.90
2023-02-01T00:18:19.714Z,3.79
2023-02-01T00:23:22.453Z,3.78
2023-02-01T00:28:26.533Z,3.81
2023-02-01T00:33:29.380Z,3.73
2023-02-01T00:38:32.818Z,3.70
2023-02-01T00:43:37.260Z,3.76
2023-02-01T00:48:40.583Z,3.82
2023-02-01T00:53:43.522Z,3.77
2023-02-01T00:58:47.649Z,3.77
2023-02-01T01:03:52.512Z,3.88
2023-02-01T01:08:56.128Z,3.79
2023-02-01T01:14:01.174Z,3.78
2023-02-01T01:19:04.615Z,3.78
2023-02-01T01:24:07.770Z,3.87
2023-02-01T01:29:12.292Z,3.85
2023-02-01T01:34:15.736Z,3.92
2023-02-01T01:39:18.640Z,4.01
2023-02-01T01:45:00.717Z,4.10
2023-02-01T01:50:06.681Z,4.11
2023-02-01T01:55:10.268Z,4.10
2023-02-01T02:00:16.490Z,4.25
2023-02-01T02:05:21.491Z,4.34
2023-02-01T02:10:44.200Z,4.26
2023-02-01T02:15:55.131Z,4.40
2023-02-01T02:21:14.857Z,4.39
2023-02-01T02:26:28.733Z,4.42
2023-02-01T02:31:45.616Z,4.39
2023-02-01T02:36:58.206Z,4.48
2023-02-01T02:42:22.532Z,4.39
2023-02-01T02:47:28.538Z,4.41
2023-02-01T02:52:50.154Z,4.46
2023-02-01T02:58:10.401Z,4.40
2023-02-01T03:03:31.041Z,4.43
2023-02-01T03:08:35.130Z,4.39
2023-02-01T03:13:42.274Z,4.30
2023-02-01T03:18:49.494Z,4.44
2023-02-01T03:23:55.786Z,4.52
2023-02-01T03:29:04.308Z,4.50
2023-02-01T03:34:08.110Z,4.52
2023-02-01T03:39:18.312Z,4.62
2023-02-01T03:44:23.642Z,4.63
2023-02-01T03:49:35.732Z,4.61
2023-02-01T03:54:41.745Z,4.67
2023-02-01T03:59:46.556Z,4.58
2023-02-01T04:04:49.506Z,4.65
2023-02-01T04:09:55.886Z,4.69
2023-02-01T04:14:59.089Z,4.82
2023-02-01T04:20:01.776Z,4.73
2023-02-01T04:25:08.899Z,4.76
2023-02-01T04:30:12.998Z,4.80
2023-02-01T04:35:15.765Z,4.82
2023-02-01T04:40:20.074Z,4.88
2023-02-01T04:45:22.840Z,4.83
2023-02-01T04:50:25.649Z,4.75
2023-02-01T04:55:29.979Z,4.70
2023-02-01T05:00:32.659Z,4.80
2023-02-01T05:05:35.358Z,4.73
2023-02-01T05:10:39.421Z,4.79
2023-02-01T05:15:42.177Z,4.67
2023-02-01T05:20:44.952Z,4.62
2023-02-01T05:25:49.002Z,4.57
2023-02-01T05:30:51.761Z,4.67
2023-02-01T05:35:54.514Z,4.62
2023-02-01T05:40:58.691Z,4.63
2023-02-01T05:46:01.437Z,4.60
2023-02-01T05:51:04.323Z,4.59
2023-02-01T05:56:08.971Z,4.62
2023-02-01T06:01:11.707Z,4.67
2023-02-01T06:06:14.396Z,4.67
2023-02-01T06:11:31.764Z,4.65
2023-02-01T06:16:35.285Z,4.68
2023-02-01T06:21:38.224Z,4.74
2023-02-01T06:26:42.493Z,4.76
2023-02-01T06:31:45.230Z,4.76
2023-02-01T06:36:48.069Z,4.65
2023-02-01T06:41:52.325Z,4.67
2023-02-01T06:46:55.830Z,4.71
2023-02-01T06:52:01.041Z,4.80
2023-02-01T06:57:05.168Z,4.73
2023-02-01T07:02:07.942Z,4.69
2023-02-01T07:07:10.632Z,4.75
2023-02-01T07:12:15.086Z,4.73
2023-02-01T07:17:17.781Z,4.77
2023-02-01T07:22:20.852Z,4.82
2023-02-01T07:27:26.554Z,4.76
2023-02-01T07:32:29.305Z,4.76
2023-02-01T07:37:32.050Z,4.76
2023-02-01T07:42:36.434Z,4.76
2023-02-01T07:47:39.151Z,4.76
2023-02-01T07:52:41.998Z,4.75
2023-02-01T07:57:46.060Z,4.75
2023-02-01T08:02:48.805Z,4.81
2023-02-01T08:07:51.960Z,4.77
2023-02-01T08:13:00.812Z,4.78
2023-02-01T08:18:03.557Z,4.77
2023-02-01T08:23:09.722Z,4.86
2023-02-01T08:28:13.637Z,4.89
2023-02-01T08:33:16.347Z,4.95
2023-02-01T08:38:19.081Z,4.99
2023-02-01T08:43:23.193Z,5.08
2023-02-01T08:48:25.976Z,5.07
2023-02-01T08:53:28.701Z,5.01
2023-02-01T08:58:32.809Z,5.07
2023-02-01T09:03:35.597Z,4.98
2023-02-01T09:08:39.953Z,4.99
2023-02-01T09:13:44.279Z,5.01
2023-02-01T09:18:56.017Z,5.07
2023-02-01T09:24:12.122Z,5.07
2023-02-01T09:29:16.215Z,5.13
2023-02-01T09:34:18.963Z,5.19
2023-02-01T09:39:21.704Z,5.15
2023-02-01T09:44:53.907Z,5.14
2023-02-01T09:49:59.215Z,5.15
2023-02-01T09:55:03.901Z,5.17
2023-02-01T10:00:17.351Z,5.25
2023-02-01T10:05:28.517Z,5.31
2023-02-01T10:10:36.053Z,5.27
2023-02-01T10:15:56.619Z,5.28
2023-02-01T10:21:04.705Z,5.34
2023-02-01T10:26:14.977Z,5.45
2023-02-01T10:31:20.090Z,5.45
2023-02-01T10:36:26.989Z,5.50
2023-02-01T10:41:33.668Z,5.60
2023-02-01T10:46:37.775Z,5.59
2023-02-01T10:51:45.883Z,5.54
2023-02-01T10:56:49.210Z,5.52
2023-02-01T11:02:01.248Z,5.58
2023-02-01T11:07:09.449Z,5.57
2023-02-01T11:12:25.765Z,5.60
2023-02-01T11:17:31.474Z,5.60
2023-02-01T11:22:34.285Z,5.59
2023-02-01T11:27:43.026Z,5.62
2023-02-01T11:32:53.716Z,5.61
2023-02-01T11:37:59.872Z,5.60
2023-02-01T11:43:02.957Z,5.57
2023-02-01T11:48:15.079Z,5.49
2023-02-01T11:53:27.952Z,5.48
2023-02-01T11:58:54.768Z,5.47
2023-02-01T12:04:15.629Z,5.45
2023-02-01T12:09:52.538Z,5.30
2023-02-01T12:15:15.813Z,5.31
2023-02-01T12:20:33.434Z,5.22
2023-02-01T12:25:44.297Z,5.22
2023-02-01T12:30:59.367Z,5.09
2023-02-01T12:36:12.786Z,5.01
2023-02-01T12:41:27.388Z,4.97
2023-02-01T12:46:33.570Z,4.98
2023-02-01T12:51:38.234Z,4.92
2023-02-01T12:56:49.945Z,4.83
2023-02-01T13:01:57.537Z,4.72
2023-02-01T13:07:08.493Z,4.73
2023-02-01T13:12:14.862Z,4.78
2023-02-01T13:17:21.851Z,4.91
2023-02-01T13:22:29.820Z,4.83
2023-02-01T13:27:33.248Z,4.88
2023-02-01T13:33:52.258Z,4.86
2023-02-01T13:39:01.304Z,4.92
2023-02-01T13:44:07.444Z,4.86
2023-02-01T13:49:15.644Z,4.87
2023-02-01T13:54:31.587Z,4.88
2023-02-01T13:59:52.716Z,4.95
2023-02-01T14:04:55.750Z,5.06
2023-02-01T14:09:59.845Z,5.16
2023-02-01T14:15:22.956Z,5.30
2023-02-01T14:20:49.738Z,5.33
2023-02-01T14:26:11.008Z,5.42
2023-02-01T14:31:37.401Z,5.54
2023-02-01T14:36:50.265Z,5.65
2023-02-01T14:41:59.397Z,5.68
2023-02-01T14:47:12.607Z,5.77
2023-02-01T14:52:18.318Z,5.73
2023-02-01T14:57:22.889Z,5.76
2023-02-01T15:05:34.898Z,5.87
2023-02-01T15:10:44.489Z,5.75
2023-02-01T15:15:47.254Z,5.68
2023-02-01T15:21:26.117Z,5.75
2023-02-01T15:26:29.856Z,5.68
2023-02-01T15:31:35.383Z,5.64
2023-02-01T15:36:43.840Z,5.57
2023-02-01T15:41:52.274Z,5.53
2023-02-01T15:46:55.095Z,5.59
2023-02-01T15:52:00.330Z,5.74
2023-02-01T15:57:04.359Z,5.78
2023-02-01T16:02:27.452Z,5.74
2023-02-01T16:07:33.068Z,5.83
2023-02-01T16:12:47.766Z,5.75
2023-02-01T16:17:51.280Z,5.92
2023-02-01T16:22:55.347Z,5.97
2023-02-01T16:27:58.147Z,6.01
2023-02-01T16:33:03.490Z,5.82
2023-02-01T16:38:13.652Z,5.78
2023-02-01T16:43:18.473Z,5.87
2023-02-01T16:48:23.571Z,5.84
2023-02-01T16:53:28.857Z,5.94
2023-02-01T16:58:31.571Z,5.90
2023-02-01T17:03:34.308Z,5.78
2023-02-01T17:08:42.058Z,5.66
2023-02-01T17:13:46.344Z,5.58
2023-02-01T17:18:54.954Z,5.53
2023-02-01T17:24:01.163Z,5.49
2023-02-01T17:29:03.711Z,4.95
2023-02-01T17:34:06.574Z,4.92
2023-02-01T17:39:11.178Z,4.92
2023-02-01T17:44:13.934Z,4.96
2023-02-01T17:49:16.641Z,4.91
2023-02-01T17:54:20.734Z,4.91
2023-02-01T17:59:23.425Z,4.85
2023-02-01T18:04:26.165Z,4.78
2023-02-01T18:09:30.226Z,4.62
2023-02-01T18:14:33.629Z,4.60
2023-02-01T18:19:36.313Z,4.58
2023-02-01T18:24:40.340Z,4.59
2023-02-01T18:29:43.030Z,4.70
2023-02-01T18:34:46.171Z,4.83
2023-02-01T18:39:50.334Z,4.78
2023-02-01T18:44:53.094Z,4.69
2023-02-01T18:49:55.766Z,4.81
2023-02-01T18:55:00.509Z,4.78
2023-02-01T19:00:04.092Z,4.76
2023-02-01T19:05:07.948Z,4.64
2023-02-01T19:10:13.889Z,4.53
2023-02-01T19:15:17.038Z,4.51
2023-02-01T19:20:21.048Z,4.49
2023-02-01T19:25:27.041Z,4.49
2023-02-01T19:30:29.762Z,4.56
2023-02-01T19:35:32.691Z,4.69
2023-02-01T19:40:37.010Z,4.76
2023-02-01T19:45:39.710Z,4.80
2023-02-01T19:50:42.765Z,4.73
2023-02-01T19:55:47.763Z,4.81
2023-02-01T20:00:53.668Z,4.81
2023-02-01T20:05:57.767Z,4.71
2023-02-01T20:11:02.257Z,4.61
2023-02-01T20:16:05.451Z,4.58
2023-02-01T20:21:08.193Z,4.49
2023-02-01T20:26:13.154Z,4.34
2023-02-01T20:31:16.321Z,4.26
2023-02-01T20:36:19.084Z,4.16
2023-02-01T20:41:23.454Z,4.14
2023-02-01T20:46:26.215Z,4.08
2023-02-01T20:51:28.962Z,3.97
2023-02-01T20:56:33.007Z,3.99
2023-02-01T21:01:35.708Z,3.96
2023-02-01T21:06:38.881Z,3.88
2023-02-01T21:11:44.055Z,3.77
2023-02-01T21:16:46.855Z,3.68
2023-02-01T21:21:49.629Z,3.64
2023-02-01T21:26:53.879Z,3.67
2023-02-01T21:31:56.693Z,3.74
2023-02-01T21:36:59.563Z,3.73
2023-02-01T21:42:17.051Z,3.75
2023-02-01T21:47:26.044Z,3.86
2023-02-01T21:52:29.529Z,3.92
2023-02-01T21:57:33.572Z,3.87
2023-02-01T22:02:36.696Z,3.85
2023-02-01T22:07:39.515Z,3.85
2023-02-01T22:12:43.557Z,3.89
2023-02-01T22:17:46.251Z,3.90
2023-02-01T22:22:49.527Z,3.93
2023-02-01T22:28:30.314Z,4.20
2023-02-01T22:33:16.790Z,4.38
2023-02-01T22:38:19.969Z,4.30
2023-02-01T22:43:24.333Z,4.30
2023-02-01T22:48:27.037Z,4.22
2023-02-01T22:53:30.965Z,4.26
2023-02-01T22:58:36.211Z,4.28
2023-02-01T23:03:39.464Z,4.25
2023-02-01T23:08:42.308Z,4.22
2023-02-01T23:13:46.345Z,4.23
2023-02-01T23:18:49.085Z,4.20
2023-02-01T23:23:54.195Z,4.24
2023-02-01T23:28:58.967Z,4.17
2023-02-01T23:34:03.097Z,4.14
2023-02-01T23:39:05.825Z,4.15
2023-02-01T23:44:10.052Z,4.08
2023-02-01T23:49:12.744Z,4.06
2023-02-01T23:54:15.420Z,4.06
2023-02-01T23:59:21.184Z,3.97
